Terminal Aerodrome Forecast
Issued by NWS

Home | Current Version | Previous Version | Text Only | Print | Product List | Glossary On
Versions: 1 2 3 4 5 6 7 8 9 10 11 12 13 14 15 16
000
FTUS43 KICT 211100
TAFCNU
TAF
KCNU 211133Z 2112/2212 16010KT P6SM SKC
     FM211600 19015G22KT P6SM SCT050
     FM220200 17010KT P6SM SCT120=

USA.gov is the U.S. government's official web portal to all federal, state and local government web resources and services.